Time;durP1;ratioP1;P1;durP2;ratioP2;P2;SDS_P1;SDS_P2;PMS_P1;PMS_P2;Temp;Humidity;BMP_temperature;BMP_pressure;BME280_temperature;BME280_humidity;BME280_pressure;Samples;Min_cycle;Max_cycle;Signal;HPM_P1;HPM_P2
2023/08/22 00:00:21;;;;;;;2.47;1.13;;;;;;;20.70;100.00;98775.16;15268098;19;20018;-76
2023/08/22 00:05:49;;;;;;;2.70;1.30;;;;;;;20.66;100.00;98773.06;15269483;19;20016;-76
2023/08/22 00:11:14;;;;;;;4.35;1.02;;;;;;;20.59;100.00;98768.47;15274022;19;20015;-78
2023/08/22 00:16:38;;;;;;;5.05;1.15;;;;;;;20.55;100.00;98774.59;15269582;19;20331;-78
2023/08/22 00:22:06;;;;;;;1.90;1.20;;;;;;;20.45;100.00;98773.19;15274499;19;20011;-75
2023/08/22 00:27:32;;;;;;;3.13;1.23;;;;;;;20.39;100.00;98765.81;15276378;19;20010;-76
2023/08/22 00:32:58;;;;;;;3.45;1.23;;;;;;;20.32;100.00;98754.06;15271623;19;20066;-76
2023/08/22 00:38:25;;;;;;;3.38;1.42;;;;;;;20.24;100.00;98743.34;15267574;19;20018;-79
2023/08/22 00:43:50;;;;;;;4.82;1.30;;;;;;;20.11;100.00;98755.19;15271246;19;20030;-75
2023/08/22 00:49:15;;;;;;;4.18;1.40;;;;;;;20.05;100.00;98750.59;15269909;19;20018;-76
2023/08/22 00:54:44;;;;;;;4.35;1.40;;;;;;;19.97;100.00;98751.66;15272976;19;20011;-76
2023/08/22 01:00:10;;;;;;;3.08;1.27;;;;;;;19.92;100.00;98748.72;15267746;19;20070;-78
2023/08/22 01:05:42;;;;;;;2.22;1.30;;;;;;;19.84;100.00;98749.75;15271019;19;20553;-76
2023/08/22 01:11:19;;;;;;;4.40;1.40;;;;;;;19.79;100.00;98744.94;15268026;19;20006;-76
2023/08/22 01:16:46;;;;;;;4.78;1.20;;;;;;;19.73;100.00;98732.13;15285495;19;20025;-75
2023/08/22 01:22:13;;;;;;;2.55;1.25;;;;;;;19.66;100.00;98732.16;15280606;19;20022;-78
2023/08/22 01:27:44;;;;;;;2.67;1.33;;;;;;;19.62;100.00;98730.88;15287186;19;20042;-77
2023/08/22 01:33:14;;;;;;;4.88;1.35;;;;;;;19.55;100.00;98727.31;15283618;19;20014;-77
2023/08/22 01:38:44;;;;;;;2.42;1.20;;;;;;;19.48;100.00;98723.75;15278126;19;20751;-76
2023/08/22 01:44:08;;;;;;;3.10;1.20;;;;;;;19.41;100.00;98712.81;15282197;19;20074;-76
2023/08/22 01:49:35;;;;;;;3.90;1.60;;;;;;;19.29;100.00;98723.56;15288671;19;20009;-76
2023/08/22 01:55:03;;;;;;;4.43;1.25;;;;;;;19.23;100.00;98716.19;15279082;19;20014;-77
2023/08/22 02:00:35;;;;;;;4.70;1.20;;;;;;;19.19;100.00;98714.94;15281026;19;20014;-76
2023/08/22 02:06:00;;;;;;;2.25;1.15;;;;;;;19.16;100.00;98701.69;15283008;19;20017;-76
2023/08/22 02:11:28;;;;;;;2.75;1.30;;;;;;;19.14;100.00;98706.53;15282372;19;20039;-79
2023/08/22 02:16:52;;;;;;;4.22;1.50;;;;;;;19.13;100.00;98688.47;15276635;19;20025;-77
2023/08/22 02:22:17;;;;;;;3.80;1.40;;;;;;;19.06;100.00;98675.66;15282382;19;20015;-76
2023/08/22 02:27:45;;;;;;;3.78;1.50;;;;;;;19.03;100.00;98677.97;15278283;19;20014;-77
2023/08/22 02:33:10;;;;;;;6.32;1.60;;;;;;;18.97;100.00;98676.94;15280877;19;20734;-78
2023/08/22 02:38:34;;;;;;;3.78;1.42;;;;;;;18.94;100.00;98685.53;15284592;19;20505;-78
2023/08/22 02:44:03;;;;;;;4.72;1.42;;;;;;;18.94;100.00;98680.06;15286876;19;20017;-79
2023/08/22 02:49:29;;;;;;;3.00;1.30;;;;;;;18.91;100.00;98677.72;15284163;19;20378;-78
2023/08/22 02:54:53;;;;;;;3.13;1.33;;;;;;;18.81;100.00;98686.34;15285657;19;20024;-80
2023/08/22 03:00:21;;;;;;;4.10;1.40;;;;;;;18.75;100.00;98687.16;15278244;19;20074;-77
2023/08/22 03:05:46;;;;;;;5.53;1.40;;;;;;;18.68;100.00;98689.06;15282773;19;20021;-78
2023/08/22 03:11:11;;;;;;;2.10;1.23;;;;;;;18.64;100.00;98680.41;15285366;19;20018;-77
2023/08/22 03:16:38;;;;;;;3.58;1.23;;;;;;;18.59;100.00;98681.03;15288009;19;20015;-79
2023/08/22 03:22:02;;;;;;;2.92;1.40;;;;;;;18.55;100.00;98678.94;15284385;19;20021;-77
2023/08/22 03:27:28;;;;;;;4.35;1.50;;;;;;;18.50;100.00;98681.44;15308632;19;20021;-78
2023/08/22 03:32:56;;;;;;;4.95;1.50;;;;;;;18.44;100.00;98673.03;15283096;19;20046;-77
2023/08/22 03:38:22;;;;;;;3.03;1.25;;;;;;;18.36;100.00;98681.41;15285318;19;20011;-79
2023/08/22 03:43:46;;;;;;;3.10;1.20;;;;;;;18.34;100.00;98680.78;15282414;19;20062;-77
2023/08/22 03:49:15;;;;;;;6.60;1.42;;;;;;;18.27;100.00;98678.03;15282349;19;20022;-78
2023/08/22 03:54:40;;;;;;;3.03;1.30;;;;;;;18.16;100.00;98668.56;15280465;19;20031;-78
2023/08/22 04:00:05;;;;;;;5.07;1.58;;;;;;;17.99;100.00;98684.41;15272410;19;20019;-79
2023/08/22 04:05:33;;;;;;;6.05;1.77;;;;;;;17.90;100.00;98699.22;15278543;19;20572;-77
2023/08/22 04:10:58;;;;;;;3.33;1.83;;;;;;;17.83;100.00;98699.19;15284836;19;20096;-77
2023/08/22 04:16:23;;;;;;;3.60;1.40;;;;;;;17.81;100.00;98705.91;15280100;19;20017;-77
2023/08/22 04:21:52;;;;;;;3.22;1.30;;;;;;;17.80;100.00;98713.25;15278474;19;20014;-78
2023/08/22 04:27:18;;;;;;;3.40;1.30;;;;;;;17.85;100.00;98716.19;15276465;19;20014;-78
2023/08/22 04:32:43;;;;;;;5.03;1.55;;;;;;;17.87;100.00;98707.84;15272909;19;20028;-79
2023/08/22 04:38:11;;;;;;;3.67;1.50;;;;;;;17.92;100.00;98705.31;15274010;19;20025;-76
2023/08/22 04:43:38;;;;;;;2.33;1.52;;;;;;;17.93;100.00;98706.19;15272003;19;20018;-77
2023/08/22 04:49:02;;;;;;;4.63;1.50;;;;;;;17.98;100.00;98699.13;15284079;19;20014;-77
2023/08/22 04:54:23;;;;;;;2.17;1.45;;;;;;;18.02;100.00;98694.09;15287332;19;20023;-81
2023/08/22 04:59:48;;;;;;;5.65;1.60;;;;;;;18.04;100.00;98696.59;15277577;19;20038;-77
2023/08/22 05:05:15;;;;;;;4.20;1.60;;;;;;;18.06;100.00;98695.34;15279351;19;20014;-76
2023/08/22 05:10:45;;;;;;;5.70;1.55;;;;;;;18.05;100.00;98699.13;15285271;19;20761;-77
2023/08/22 05:16:10;;;;;;;2.80;1.30;;;;;;;18.09;100.00;98694.94;15287711;19;20040;-78
2023/08/22 05:21:36;;;;;;;3.72;1.60;;;;;;;18.12;100.00;98699.16;15298994;19;20027;-79
2023/08/22 05:27:03;;;;;;;3.78;1.70;;;;;;;18.14;100.00;98719.75;15308040;19;20021;-81
2023/08/22 05:32:28;;;;;;;4.85;1.60;;;;;;;18.15;100.00;98721.41;15305712;19;20053;-83
2023/08/22 05:37:52;;;;;;;5.88;1.83;;;;;;;18.23;100.00;98720.38;15293118;19;20022;-83
2023/08/22 05:43:20;;;;;;;4.10;1.90;;;;;;;18.28;100.00;98731.53;15295895;19;20002;-79
2023/08/22 05:48:45;;;;;;;5.60;1.92;;;;;;;18.35;100.00;98731.56;15296774;19;20351;-80
2023/08/22 05:54:14;;;;;;;5.00;2.03;;;;;;;18.41;100.00;98735.34;15288376;19;20010;-80
2023/08/22 05:59:49;;;;;;;3.92;2.00;;;;;;;18.55;100.00;98736.22;15279583;19;20038;-79
2023/08/22 06:05:16;;;;;;;4.43;2.28;;;;;;;18.63;100.00;98733.34;15278382;19;20006;-79
2023/08/22 06:10:41;;;;;;;8.45;2.20;;;;;;;18.70;100.00;98734.19;15279725;19;20025;-83
2023/08/22 06:16:08;;;;;;;5.57;1.98;;;;;;;18.83;100.00;98735.25;15283790;19;20086;-78
2023/08/22 06:21:36;;;;;;;8.80;2.38;;;;;;;18.90;100.00;98744.28;15283268;19;20022;-82
2023/08/22 06:27:00;;;;;;;5.07;1.92;;;;;;;19.04;100.00;98745.19;15285334;19;20027;-82
2023/08/22 06:32:28;;;;;;;6.28;2.30;;;;;;;19.17;100.00;98744.34;15281899;19;20109;-78
2023/08/22 06:37:53;;;;;;;5.68;2.15;;;;;;;19.30;100.00;98738.91;15287134;19;20016;-77
2023/08/22 06:43:17;;;;;;;4.40;1.92;;;;;;;19.43;100.00;98737.22;15277269;19;20022;-78
2023/08/22 06:48:48;;;;;;;9.85;1.80;;;;;;;19.60;100.00;98735.72;15291263;19;20011;-80
2023/08/22 06:54:15;;;;;;;5.30;1.80;;;;;;;19.71;100.00;98705.00;15284794;19;20018;-79
2023/08/22 06:59:47;;;;;;;5.70;2.20;;;;;;;19.93;100.00;98707.50;15280449;19;20054;-77
2023/08/22 07:05:15;;;;;;;;;;;;;;;20.16;100.00;98714.38;15280664;19;20011;-81
2023/08/22 07:10:40;;;;;;;5.30;1.65;;;;;;;20.27;100.00;98694.53;15283131;19;19915;-78
2023/08/22 07:16:05;;;;;;;3.05;1.60;;;;;;;20.53;100.00;98689.97;15276861;19;20025;-77
2023/08/22 07:21:33;;;;;;;3.78;1.67;;;;;;;20.68;100.00;98676.00;15283021;19;20014;-79
2023/08/22 07:26:58;;;;;;;6.28;1.85;;;;;;;20.87;100.00;98674.22;15289612;19;20363;-82
2023/08/22 07:32:23;;;;;;;8.07;1.80;;;;;;;21.03;100.00;98680.16;15289396;19;20014;-81
2023/08/22 07:37:53;;;;;;;5.55;2.00;;;;;;;21.23;100.00;98680.84;15285547;19;20365;-80
2023/08/22 07:43:18;;;;;;;8.43;1.67;;;;;;;21.36;100.00;98668.06;15290555;19;20014;-79
2023/08/22 07:48:44;;;;;;;6.53;1.80;;;;;;;21.55;100.00;98669.78;15290337;19;20018;-81
2023/08/22 07:54:11;;;;;;;3.58;1.60;;;;;;;21.77;100.00;98674.88;15289180;19;20696;-81
2023/08/22 07:59:43;;;;;;;3.38;1.60;;;;;;;21.94;100.00;98674.22;15297691;19;20018;-79
2023/08/22 08:05:10;;;;;;;3.55;1.60;;;;;;;22.26;100.00;98682.31;15280440;19;20082;-78
2023/08/22 08:10:39;;;;;;;2.75;1.60;;;;;;;22.43;100.00;98674.28;15280148;19;20007;-78
2023/08/22 08:16:04;;;;;;;4.40;1.70;;;;;;;22.57;100.00;98672.19;15282062;19;20056;-79
2023/08/22 08:21:28;;;;;;;3.38;1.50;;;;;;;22.78;100.00;98671.63;15278508;19;20019;-84
2023/08/22 08:26:56;;;;;;;5.22;1.58;;;;;;;22.88;100.00;98665.59;15305730;19;20018;-82
2023/08/22 08:32:24;;;;;;;3.55;1.70;;;;;;;23.05;100.00;98676.72;15308496;19;20021;-80
2023/08/22 08:37:51;;;;;;;4.97;1.67;;;;;;;23.22;100.00;98668.66;15308522;19;20014;-82
2023/08/22 08:43:18;;;;;;;2.92;1.50;;;;;;;23.38;100.00;98669.84;15299206;19;20352;-80
2023/08/22 08:48:44;;;;;;;3.03;1.48;;;;;;;23.55;100.00;98666.38;15303159;19;20028;-82
2023/08/22 08:54:10;;;;;;;4.70;1.65;;;;;;;23.71;100.00;98667.56;15290061;19;20715;-79
2023/08/22 08:59:37;;;;;;;3.80;1.40;;;;;;;23.98;100.00;98661.56;15297560;19;20091;-79
2023/08/22 09:05:02;;;;;;;2.97;1.40;;;;;;;24.13;100.00;98661.03;15296970;19;20481;-80
2023/08/22 09:10:37;;;;;;;7.60;1.25;;;;;;;24.27;100.00;98673.44;15327885;19;20018;-79
2023/08/22 09:16:11;;;;;;;3.47;1.30;;;;;;;24.34;100.00;98666.94;15335711;19;20017;-78
2023/08/22 09:21:36;;;;;;;3.67;1.58;;;;;;;24.43;100.00;98654.44;15305984;19;20017;-77
2023/08/22 09:27:01;;;;;;;3.47;1.40;;;;;;;24.51;100.00;98651.31;15293251;19;20006;-77
2023/08/22 09:32:28;;;;;;;4.63;1.50;;;;;;;24.85;100.00;98650.53;15291452;19;20375;-78
2023/08/22 09:37:55;;;;;;;6.10;1.40;;;;;;;24.84;100.00;98651.63;15291149;19;20025;-79
2023/08/22 09:43:21;;;;;;;6.03;1.40;;;;;;;24.91;100.00;98653.13;15298571;19;20090;-79
2023/08/22 09:48:51;;;;;;;5.03;1.33;;;;;;;25.09;100.00;98648.47;15296215;19;20420;-76
2023/08/22 09:54:17;;;;;;;4.32;1.50;;;;;;;25.22;100.00;98650.03;15293620;19;20011;-79
2023/08/22 09:59:44;;;;;;;5.88;1.45;;;;;;;25.36;100.00;98654.13;15292320;19;20587;-79
2023/08/22 10:05:12;;;;;;;5.30;1.20;;;;;;;25.32;100.00;98643.84;15289027;19;20500;-81
2023/08/22 10:10:38;;;;;;;2.78;1.20;;;;;;;25.42;100.00;98644.03;15295322;19;20011;-80
2023/08/22 10:16:04;;;;;;;3.25;1.30;;;;;;;25.48;100.00;98634.72;15288706;19;20028;-79
2023/08/22 10:21:36;;;;;;;3.28;1.27;;;;;;;25.54;100.00;98647.53;15284846;19;20094;-80
2023/08/22 10:27:03;;;;;;;5.88;1.30;;;;;;;25.69;100.00;98646.06;15291470;19;20018;-81
2023/08/22 10:32:32;;;;;;;3.67;1.20;;;;;;;25.58;100.00;98649.78;15293735;19;20078;-80
2023/08/22 10:38:00;;;;;;;5.88;1.10;;;;;;;25.45;100.00;98649.06;15297667;19;20019;-79
2023/08/22 10:43:24;;;;;;;5.15;1.10;;;;;;;25.67;100.00;98659.28;15291383;19;20088;-77
2023/08/22 10:48:49;;;;;;;4.00;1.15;;;;;;;25.76;100.00;98654.97;15293640;19;20039;-83
2023/08/22 10:54:26;;;;;;;4.35;1.08;;;;;;;25.83;100.00;98655.63;15288273;19;20038;-82
2023/08/22 11:00:07;;;;;;;7.80;1.20;;;;;;;25.91;100.00;98645.25;15290691;19;20123;-78
2023/08/22 11:05:32;;;;;;;17.93;1.53;;;;;;;25.99;100.00;98636.50;15294197;19;20096;-79
2023/08/22 11:11:01;;;;;;;3.92;1.30;;;;;;;26.13;100.00;98637.81;15295778;19;20030;-81
2023/08/22 11:16:27;;;;;;;3.45;1.02;;;;;;;26.32;100.00;98645.75;15291419;19;20021;-79
2023/08/22 11:21:53;;;;;;;5.07;1.15;;;;;;;26.39;100.00;98643.63;15289519;19;20011;-79
2023/08/22 11:27:22;;;;;;;7.18;1.20;;;;;;;26.63;100.00;98632.25;15290537;19;20015;-79
2023/08/22 11:32:51;;;;;;;13.93;1.20;;;;;;;26.67;100.00;98636.16;15288135;19;20018;-80
2023/08/22 11:38:15;;;;;;;3.08;1.00;;;;;;;26.83;100.00;98636.34;15295867;19;20022;-82
2023/08/22 11:43:55;;;;;;;8.35;1.33;;;;;;;27.07;100.00;98639.56;15289233;19;20090;-80
2023/08/22 11:49:20;;;;;;;5.50;1.10;;;;;;;27.14;100.00;98639.34;15294177;19;20051;-82
2023/08/22 11:54:47;;;;;;;15.20;1.40;;;;;;;27.24;100.00;98633.88;15287473;19;20018;-81
2023/08/22 12:00:19;;;;;;;7.05;1.13;;;;;;;27.36;100.00;98636.47;15284963;19;20007;-80
2023/08/22 12:05:48;;;;;;;3.70;0.90;;;;;;;27.23;100.00;98640.50;15290643;19;20010;-82
2023/08/22 12:11:15;;;;;;;8.85;1.05;;;;;;;27.52;100.00;98627.16;15301477;19;20020;-79
2023/08/22 12:16:44;;;;;;;5.40;1.17;;;;;;;27.58;100.00;98633.56;15338934;19;20018;-79
2023/08/22 12:22:08;;;;;;;4.00;0.98;;;;;;;27.55;100.00;98630.50;15287233;19;20007;-76
2023/08/22 12:27:33;;;;;;;6.68;1.10;;;;;;;27.68;100.00;98632.78;15267922;19;20021;-77
2023/08/22 12:33:00;;;;;;;6.72;1.05;;;;;;;27.88;100.00;98623.75;15269458;19;20021;-74
2023/08/22 12:38:25;;;;;;;7.93;1.10;;;;;;;28.20;100.00;98621.97;15265514;19;20024;-76
2023/08/22 12:43:51;;;;;;;9.30;1.23;;;;;;;28.24;100.00;98612.84;15269679;19;20245;-75
2023/08/22 12:49:19;;;;;;;1.33;0.70;;;;;;;28.17;94.01;98612.25;15270664;19;20469;-78
2023/08/22 12:54:44;;;;;;;6.60;0.93;;;;;;;28.18;99.42;98608.38;15268017;19;20015;-74
2023/08/22 13:00:17;;;;;;;3.83;0.75;;;;;;;28.12;87.14;98609.47;15262396;19;20015;-75
2023/08/22 13:05:44;;;;;;;5.65;0.82;;;;;;;28.04;86.09;98599.72;15268518;19;20027;-74
2023/08/22 13:11:09;;;;;;;3.03;1.00;;;;;;;28.12;94.40;98603.94;15276785;19;20062;-74
2023/08/22 13:16:34;;;;;;;4.43;0.90;;;;;;;28.27;95.99;98600.34;15284508;19;20015;-75
2023/08/22 13:22:01;;;;;;;7.88;0.80;;;;;;;28.36;92.24;98601.47;15279128;19;20011;-74
2023/08/22 13:27:27;;;;;;;3.58;0.80;;;;;;;28.69;93.60;98592.94;15285589;19;20085;-76
2023/08/22 13:32:58;;;;;;;2.60;1.00;;;;;;;28.88;82.54;98588.53;15277860;19;20018;-78
2023/08/22 13:38:25;;;;;;;3.60;0.82;;;;;;;29.32;83.04;98586.25;15283863;19;20024;-74
2023/08/22 13:43:51;;;;;;;5.25;0.90;;;;;;;29.50;84.60;98588.44;15275210;19;20013;-76
2023/08/22 13:49:16;;;;;;;4.13;0.75;;;;;;;29.80;81.35;98591.41;15284186;19;20021;-74
2023/08/22 13:54:43;;;;;;;1.95;0.70;;;;;;;29.43;80.23;98587.94;15277533;19;20021;-74
2023/08/22 14:00:11;;;;;;;4.47;1.15;;;;;;;29.18;80.36;98597.94;15281018;19;20661;-73
2023/08/22 14:05:35;;;;;;;2.13;0.85;;;;;;;28.91;89.08;98587.97;15273486;19;20011;-76
2023/08/22 14:11:06;;;;;;;6.13;0.88;;;;;;;28.75;89.10;98583.56;15272418;19;20011;-77
2023/08/22 14:16:30;;;;;;;5.82;0.88;;;;;;;28.60;89.19;98589.88;15260211;19;20018;-75
2023/08/22 14:21:55;;;;;;;1.70;0.90;;;;;;;28.62;93.55;98584.06;15266126;19;20015;-72
2023/08/22 14:27:22;;;;;;;6.22;0.80;;;;;;;28.69;97.38;98585.47;15272201;19;20017;-72
2023/08/22 14:32:47;;;;;;;4.63;0.90;;;;;;;28.74;100.00;98598.53;15273831;19;20473;-75
2023/08/22 14:38:12;;;;;;;3.92;1.00;;;;;;;28.33;100.00;98603.97;15272842;19;20017;-77
2023/08/22 14:43:40;;;;;;;2.80;0.93;;;;;;;28.22;100.00;98597.59;15275966;19;20023;-76
2023/08/22 14:49:05;;;;;;;2.90;0.90;;;;;;;28.23;100.00;98599.22;15276825;19;20636;-72
2023/08/22 14:54:30;;;;;;;3.45;0.90;;;;;;;28.17;100.00;98595.63;15275763;19;20014;-79
2023/08/22 14:59:57;;;;;;;1.65;0.88;;;;;;;28.05;100.00;98598.63;15281344;19;20025;-76
2023/08/22 15:05:22;;;;;;;2.95;0.90;;;;;;;27.89;100.00;98594.97;15275292;19;20018;-77
2023/08/22 15:10:46;;;;;;;4.03;1.00;;;;;;;27.69;100.00;98607.59;15265103;19;20017;-74
2023/08/22 15:16:15;;;;;;;2.67;0.90;;;;;;;27.46;100.00;98616.38;15269124;19;20360;-73
2023/08/22 15:21:40;;;;;;;4.25;0.93;;;;;;;27.41;100.00;98606.03;15269933;19;20024;-76
2023/08/22 15:27:05;;;;;;;2.55;0.98;;;;;;;27.12;100.00;98611.09;15274977;19;20010;-74
2023/08/22 15:32:32;;;;;;;2.53;0.85;;;;;;;27.33;100.00;98607.41;15269603;19;20010;-75
2023/08/22 15:37:57;;;;;;;4.55;1.00;;;;;;;27.39;100.00;98605.50;15275677;19;20018;-73
2023/08/22 15:43:23;;;;;;;3.15;0.90;;;;;;;27.34;100.00;98599.91;15266196;19;20018;-75
2023/08/22 15:48:51;;;;;;;3.28;0.90;;;;;;;27.60;100.00;98600.91;15266913;19;20014;-74
2023/08/22 15:54:15;;;;;;;1.90;0.80;;;;;;;27.61;100.00;98607.31;15269055;19;20007;-78
2023/08/22 15:59:40;;;;;;;6.20;0.88;;;;;;;27.17;100.00;98611.16;15275277;19;20015;-77
2023/08/22 16:05:07;;;;;;;4.43;0.95;;;;;;;27.06;100.00;98610.22;15269881;19;20011;-75
2023/08/22 16:10:33;;;;;;;4.07;1.02;;;;;;;27.03;100.00;98606.06;15270210;19;20022;-76
2023/08/22 16:15:58;;;;;;;5.53;1.00;;;;;;;26.90;100.00;98612.91;15260938;19;20039;-78
2023/08/22 16:21:26;;;;;;;4.78;1.00;;;;;;;26.54;100.00;98614.47;15263166;19;20015;-76
2023/08/22 16:26:50;;;;;;;3.45;1.00;;;;;;;26.34;100.00;98609.59;15274608;19;20014;-76
2023/08/22 16:32:15;;;;;;;2.42;0.77;;;;;;;26.19;100.00;98618.53;15281072;19;20014;-76
2023/08/22 16:37:42;;;;;;;3.28;0.90;;;;;;;26.10;100.00;98627.28;15295156;19;20394;-76
2023/08/22 16:43:07;;;;;;;3.15;0.80;;;;;;;25.94;100.00;98623.47;15267316;19;20011;-74
2023/08/22 16:48:32;;;;;;;1.42;0.70;;;;;;;25.83;99.21;98621.69;15280578;19;20018;-75
2023/08/22 16:54:00;;;;;;;1.23;0.65;;;;;;;25.71;97.88;98629.25;15276715;19;20047;-74
2023/08/22 16:59:29;;;;;;;7.65;0.80;;;;;;;25.58;100.00;98623.00;15281244;19;20015;-74
2023/08/22 17:04:55;;;;;;;4.32;0.73;;;;;;;25.46;98.78;98625.03;15279359;19;20010;-75
2023/08/22 17:10:22;;;;;;;2.90;0.70;;;;;;;25.24;100.00;98623.88;15284797;19;20804;-76
2023/08/22 17:15:47;;;;;;;5.28;1.00;;;;;;;25.14;100.00;98618.19;15274456;19;20021;-74
2023/08/22 17:21:14;;;;;;;2.45;0.85;;;;;;;25.00;100.00;98619.63;15276526;19;20029;-77
2023/08/22 17:26:43;;;;;;;6.25;0.90;;;;;;;24.91;100.00;98631.06;15279641;19;20017;-74
2023/08/22 17:32:07;;;;;;;1.80;0.80;;;;;;;24.83;100.00;98642.53;15282521;19;20034;-75
2023/08/22 17:37:33;;;;;;;5.72;0.80;;;;;;;24.70;100.00;98646.41;15281641;19;20015;-75
2023/08/22 17:43:03;;;;;;;3.20;0.90;;;;;;;24.62;100.00;98647.66;15275801;19;20480;-74
2023/08/22 17:48:28;;;;;;;3.63;1.00;;;;;;;24.56;100.00;98653.31;15257612;19;20011;-75
2023/08/22 17:53:53;;;;;;;5.50;1.00;;;;;;;24.54;100.00;98633.44;15273251;19;20010;-75
2023/08/22 17:59:22;;;;;;;3.58;1.00;;;;;;;24.51;100.00;98645.78;15272172;19;20013;-77
2023/08/22 18:04:48;;;;;;;3.38;0.70;;;;;;;24.41;100.00;98646.44;15275967;19;20021;-75
2023/08/22 18:10:13;;;;;;;2.95;0.98;;;;;;;24.31;100.00;98641.56;15276785;19;20022;-74
2023/08/22 18:15:40;;;;;;;3.70;0.80;;;;;;;24.12;100.00;98653.84;15274330;19;20010;-73
2023/08/22 18:21:24;;;;;;;2.88;1.00;;;;;;;24.08;100.00;98656.25;15276868;19;20018;-74
2023/08/22 18:26:49;;;;;;;4.95;1.02;;;;;;;23.97;100.00;98655.19;15274808;19;20014;-73
2023/08/22 18:32:17;;;;;;;2.72;1.00;;;;;;;23.87;100.00;98657.72;15270966;19;20018;-74
2023/08/22 18:37:43;;;;;;;3.45;1.10;;;;;;;23.64;100.00;98662.19;15277778;19;20014;-74
2023/08/22 18:43:10;;;;;;;5.32;1.13;;;;;;;23.52;100.00;98678.66;15274656;19;20022;-74
2023/08/22 18:48:37;;;;;;;5.57;1.20;;;;;;;23.46;100.00;98684.31;15280874;19;20082;-75
2023/08/22 18:54:02;;;;;;;2.15;1.15;;;;;;;23.39;100.00;98693.50;15276046;19;20022;-75
2023/08/22 18:59:34;;;;;;;6.63;1.30;;;;;;;23.30;100.00;98696.84;15273120;19;20014;-76
2023/08/22 19:05:02;;;;;;;6.78;1.20;;;;;;;23.27;100.00;98675.34;15266589;19;20034;-76
2023/08/22 19:10:27;;;;;;;4.55;1.20;;;;;;;23.24;100.00;98684.88;15276378;19;20070;-75
2023/08/22 19:15:52;;;;;;;8.68;1.20;;;;;;;23.17;100.00;98678.66;15274890;19;20022;-76
2023/08/22 19:21:19;;;;;;;5.72;1.23;;;;;;;23.12;100.00;98695.00;15277446;19;20010;-75
2023/08/22 19:26:45;;;;;;;3.05;1.30;;;;;;;23.05;100.00;98706.94;15275243;19;20989;-77
2023/08/22 19:32:11;;;;;;;5.53;1.23;;;;;;;22.91;100.00;98702.72;15277279;19;20022;-78
2023/08/22 19:37:59;;;;;;;4.28;1.40;;;;;;;22.84;100.00;98705.56;15277116;19;20022;-75
2023/08/22 19:43:26;;;;;;;5.65;1.40;;;;;;;22.80;100.00;98709.03;15280620;19;20353;-74
2023/08/22 19:48:50;;;;;;;4.60;1.25;;;;;;;22.69;100.00;98713.44;15282884;19;20021;-77
2023/08/22 19:54:19;;;;;;;5.05;1.30;;;;;;;22.60;100.00;98716.47;15280460;19;20063;-75
2023/08/22 19:59:43;;;;;;;3.88;1.23;;;;;;;22.51;100.00;98723.38;15279036;19;20014;-76
2023/08/22 20:05:08;;;;;;;4.88;1.25;;;;;;;22.46;100.00;98713.09;15280866;19;20010;-75
2023/08/22 20:10:36;;;;;;;3.28;1.20;;;;;;;22.36;100.00;98723.75;15276101;19;20612;-77
2023/08/22 20:16:01;;;;;;;3.40;1.33;;;;;;;22.33;100.00;98726.94;15286591;19;20050;-77
2023/08/22 20:21:25;;;;;;;6.25;1.30;;;;;;;22.34;100.00;98716.84;15295173;19;20082;-76
2023/08/22 20:26:53;;;;;;;2.35;1.00;;;;;;;22.29;100.00;98725.72;15298767;19;20021;-77
2023/08/22 20:32:17;;;;;;;6.00;1.33;;;;;;;22.24;100.00;98717.38;15300240;19;20497;-74
2023/08/22 20:37:42;;;;;;;5.07;1.20;;;;;;;22.22;100.00;98703.03;15293873;19;20078;-76
2023/08/22 20:43:09;;;;;;;5.28;1.23;;;;;;;22.21;100.00;98709.59;15297374;19;20006;-75
2023/08/22 20:48:34;;;;;;;5.80;1.30;;;;;;;22.17;100.00;98715.53;15345818;19;20017;-76
2023/08/22 20:53:58;;;;;;;4.13;1.08;;;;;;;22.12;100.00;98726.38;15305041;19;20018;-73
2023/08/22 20:59:26;;;;;;;4.90;0.95;;;;;;;22.02;100.00;98726.06;15285899;19;20035;-77
2023/08/22 21:04:51;;;;;;;4.45;1.00;;;;;;;21.86;100.00;98722.84;15277279;19;20011;-79
2023/08/22 21:10:17;;;;;;;4.47;1.10;;;;;;;21.78;100.00;98725.91;15289392;19;20017;-76
2023/08/22 21:21:31;;;;;;;6.70;1.00;;;;;;;21.59;100.00;98724.16;15278546;19;20378;-75
2023/08/22 21:26:55;;;;;;;2.83;0.90;;;;;;;21.49;100.00;98714.53;15287638;19;20003;-75
2023/08/22 21:32:26;;;;;;;1.92;0.80;;;;;;;21.42;100.00;98708.31;15282409;19;20014;-75
2023/08/22 21:37:50;;;;;;;2.08;1.00;;;;;;;21.34;100.00;98706.69;15283826;19;20803;-76
2023/08/22 21:43:15;;;;;;;1.52;0.63;;;;;;;21.25;100.00;98714.34;15272011;19;20009;-76
2023/08/22 21:48:42;;;;;;;2.95;1.15;;;;;;;21.14;100.00;98715.06;15286065;19;20022;-75
2023/08/22 21:54:07;;;;;;;2.97;0.95;;;;;;;21.04;100.00;98703.75;15282634;19;20007;-75
2023/08/22 21:59:31;;;;;;;4.55;1.00;;;;;;;20.94;100.00;98707.00;15282099;19;20600;-74
2023/08/22 22:04:59;;;;;;;2.72;1.10;;;;;;;20.85;100.00;98716.53;15277478;19;20086;-75
2023/08/22 22:10:24;;;;;;;4.85;0.98;;;;;;;20.74;100.00;98721.66;15279110;19;20010;-75
2023/08/22 22:15:48;;;;;;;3.55;1.00;;;;;;;20.66;100.00;98723.78;15273770;19;20415;-75
2023/08/22 22:21:15;;;;;;;2.22;1.10;;;;;;;20.54;100.00;98721.75;15279665;19;20059;-75
2023/08/22 22:26:40;;;;;;;2.65;1.00;;;;;;;20.44;100.00;98730.44;15281665;19;20343;-75
2023/08/22 22:32:06;;;;;;;3.45;1.10;;;;;;;20.35;100.00;98729.00;15281454;19;20038;-75
2023/08/22 22:37:34;;;;;;;4.32;1.15;;;;;;;20.29;100.00;98724.41;15281111;19;20050;-76
2023/08/22 22:42:59;;;;;;;1.67;0.80;;;;;;;20.22;100.00;98720.88;15273577;19;20028;-75
2023/08/22 22:48:24;;;;;;;3.63;0.90;;;;;;;20.16;100.00;98722.59;15277456;19;20045;-75
2023/08/22 22:53:51;;;;;;;6.25;1.08;;;;;;;20.06;100.00;98719.44;15277984;19;20030;-75
2023/08/22 22:59:19;;;;;;;2.28;1.02;;;;;;;19.98;100.00;98720.53;15277780;19;20019;-75
2023/08/22 23:04:44;;;;;;;4.15;1.00;;;;;;;19.91;100.00;98715.09;15273279;19;20022;-75
2023/08/22 23:10:11;;;;;;;5.28;0.90;;;;;;;19.86;100.00;98715.72;15279943;19;20486;-75
2023/08/22 23:15:36;;;;;;;2.13;0.90;;;;;;;19.82;100.00;98719.06;15271497;19;20477;-74
2023/08/22 23:21:02;;;;;;;3.30;0.95;;;;;;;19.71;100.00;98710.47;15273824;19;20038;-77
2023/08/22 23:26:29;;;;;;;3.08;0.90;;;;;;;19.66;100.00;98718.47;15275518;19;20062;-75
2023/08/22 23:31:57;;;;;;;4.90;1.00;;;;;;;19.59;100.00;98717.63;15272592;19;20078;-74
2023/08/22 23:37:21;;;;;;;3.30;0.88;;;;;;;19.54;100.00;98725.63;15278132;19;20014;-75
2023/08/22 23:42:49;;;;;;;5.32;1.10;;;;;;;19.42;100.00;98721.88;15274659;19;20022;-76
2023/08/22 23:48:14;;;;;;;2.42;1.00;;;;;;;19.29;100.00;98707.16;15276815;19;20014;-76
2023/08/22 23:53:39;;;;;;;3.25;0.90;;;;;;;19.21;100.00;98707.38;15270053;19;20018;-77
2023/08/22 23:59:06;;;;;;;3.03;0.90;;;;;;;19.14;100.00;98709.25;15273100;19;20027;-77
